Time;durP1;ratioP1;P1;durP2;ratioP2;P2;SDS_P1;SDS_P2;PMS_P1;PMS_P2;Temp;Humidity;BMP_temperature;BMP_pressure;BME280_temperature;BME280_humidity;BME280_pressure;Samples;Min_cycle;Max_cycle;Signal;HPM_P1;HPM_P2
2024/01/20 00:02:21;;;;;;;13.85;3.40;;;2.10;99.90;;;;;;4864415;29;20409;-75
2024/01/20 00:04:47;;;;;;;11.93;3.45;;;2.00;99.90;;;;;;4864268;29;20053;-75
2024/01/20 00:07:13;;;;;;;11.45;3.28;;;2.00;99.90;;;;;;4864233;29;20044;-75
2024/01/20 00:09:39;;;;;;;13.05;3.33;;;2.00;99.90;;;;;;4880663;29;20084;-75
2024/01/20 00:12:05;;;;;;;11.65;3.70;;;2.00;99.90;;;;;;4864135;29;20132;-75
2024/01/20 00:14:33;;;;;;;9.27;3.00;;;2.00;99.90;;;;;;4864106;29;20433;-76
2024/01/20 00:16:59;;;;;;;11.93;3.60;;;2.00;99.90;;;;;;4863964;29;20101;-75
2024/01/20 00:19:25;;;;;;;7.32;2.30;;;2.00;99.90;;;;;;4864182;29;20045;-76
2024/01/20 00:21:50;;;;;;;16.52;3.47;;;2.00;99.90;;;;;;4863873;29;20530;-75
2024/01/20 00:24:16;;;;;;;10.45;2.35;;;2.00;99.90;;;;;;4862618;29;20065;-75
2024/01/20 00:26:41;;;;;;;10.73;2.70;;;2.00;99.90;;;;;;4863961;29;20045;-75
2024/01/20 00:29:07;;;;;;;11.13;3.38;;;2.00;99.90;;;;;;4863613;29;20124;-75
2024/01/20 00:31:33;;;;;;;27.00;3.78;;;2.00;99.90;;;;;;4863693;29;20056;-75
2024/01/20 00:34:02;;;;;;;10.93;2.63;;;2.00;99.90;;;;;;4863972;29;20049;-75
2024/01/20 00:36:27;;;;;;;10.80;3.45;;;2.00;99.90;;;;;;4863600;29;20061;-75
2024/01/20 00:38:53;;;;;;;9.02;2.97;;;2.00;99.90;;;;;;4863743;29;20089;-75
2024/01/20 00:41:21;;;;;;;15.82;2.60;;;2.00;99.90;;;;;;4863475;29;20393;-75
2024/01/20 00:43:47;;;;;;;9.32;2.35;;;2.00;99.90;;;;;;4863398;29;20041;-75
2024/01/20 00:46:13;;;;;;;12.75;3.00;;;2.00;99.90;;;;;;4863871;29;20055;-75
2024/01/20 00:48:38;;;;;;;13.85;3.28;;;1.90;99.90;;;;;;4863689;29;20405;-75
2024/01/20 00:51:04;;;;;;;9.32;2.78;;;1.80;99.90;;;;;;4880004;29;20374;-75
2024/01/20 00:53:29;;;;;;;10.52;2.40;;;1.80;99.90;;;;;;4863303;29;20052;-75
2024/01/20 00:55:55;;;;;;;12.15;2.92;;;1.70;99.90;;;;;;4879873;29;20051;-76
2024/01/20 00:58:21;;;;;;;10.77;2.70;;;1.70;99.90;;;;;;4880134;29;20041;-75
2024/01/20 01:00:46;;;;;;;10.13;2.53;;;1.70;99.90;;;;;;4863079;29;20105;-75
2024/01/20 01:03:12;;;;;;;15.52;3.08;;;1.60;99.90;;;;;;4863377;29;20463;-75
2024/01/20 01:05:37;;;;;;;10.88;2.55;;;1.70;99.90;;;;;;4863269;29;20053;-75
2024/01/20 01:08:07;;;;;;;11.45;2.88;;;1.60;99.90;;;;;;4862922;29;20097;-75
2024/01/20 01:10:34;;;;;;;7.70;2.47;;;1.60;99.90;;;;;;4863176;29;20060;-75
2024/01/20 01:13:00;;;;;;;9.23;2.40;;;1.60;99.90;;;;;;4863370;29;20053;-75
2024/01/20 01:15:29;;;;;;;10.52;2.90;;;1.70;99.90;;;;;;4863030;29;20523;-75
2024/01/20 01:17:55;;;;;;;11.38;2.92;;;1.70;99.90;;;;;;4863425;29;20044;-75
2024/01/20 01:20:21;;;;;;;13.88;3.05;;;1.70;99.90;;;;;;4863204;29;20480;-75
2024/01/20 01:22:48;;;;;;;10.73;2.55;;;1.60;99.90;;;;;;4863319;29;20051;-75
2024/01/20 01:25:14;;;;;;;11.13;2.78;;;1.60;99.90;;;;;;4863191;29;20091;-75
2024/01/20 01:27:40;;;;;;;14.20;3.58;;;1.60;99.90;;;;;;4863349;29;20088;-75
2024/01/20 01:30:07;;;;;;;10.48;3.47;;;1.60;99.90;;;;;;4879887;29;20481;-75
2024/01/20 01:32:32;;;;;;;11.27;2.88;;;1.60;99.90;;;;;;4863134;29;20053;-75
2024/01/20 01:34:58;;;;;;;9.40;3.47;;;1.50;99.90;;;;;;4863048;29;20077;-75
2024/01/20 01:37:24;;;;;;;8.75;3.55;;;1.50;99.90;;;;;;4879794;29;20045;-75
2024/01/20 01:39:49;;;;;;;10.65;3.22;;;1.50;99.90;;;;;;4862904;29;20409;-75
2024/01/20 01:42:15;;;;;;;12.80;3.20;;;1.40;99.90;;;;;;4862921;29;20485;-75
2024/01/20 01:44:41;;;;;;;14.32;4.57;;;1.40;99.90;;;;;;4863274;29;20501;-75
2024/01/20 01:47:06;;;;;;;10.95;3.53;;;1.40;99.90;;;;;;4862923;29;20400;-75
2024/01/20 01:49:32;;;;;;;9.13;3.08;;;1.40;99.90;;;;;;4862909;29;20056;-75
2024/01/20 01:51:58;;;;;;;11.65;3.10;;;1.40;99.90;;;;;;4863046;29;20041;-75
2024/01/20 01:54:24;;;;;;;10.88;3.10;;;1.40;99.90;;;;;;4863070;29;20496;-75
2024/01/20 01:56:52;;;;;;;9.07;3.35;;;1.40;99.90;;;;;;4862795;29;20121;-75
2024/01/20 01:59:19;;;;;;;13.88;3.28;;;1.40;99.90;;;;;;4863094;29;20053;-75
2024/01/20 02:01:45;;;;;;;15.40;3.17;;;1.40;99.90;;;;;;4862913;29;20056;-75
2024/01/20 02:04:10;;;;;;;16.35;3.25;;;1.40;99.90;;;;;;4862622;29;20095;-75
2024/01/20 02:06:36;;;;;;;16.58;3.60;;;1.40;99.90;;;;;;4862685;29;20092;-75
2024/01/20 02:09:02;;;;;;;10.40;3.97;;;1.40;99.90;;;;;;4862518;29;20485;-75
2024/01/20 02:11:28;;;;;;;16.35;3.90;;;1.40;99.90;;;;;;4862683;29;20052;-75
2024/01/20 02:13:54;;;;;;;13.85;3.30;;;1.30;99.90;;;;;;4865848;29;20488;-75
2024/01/20 02:16:20;;;;;;;10.63;3.65;;;1.30;99.90;;;;;;4866113;29;20057;-75
2024/01/20 02:18:46;;;;;;;9.43;3.35;;;1.30;99.90;;;;;;4866123;29;20049;-75
2024/01/20 02:21:11;;;;;;;12.63;3.70;;;1.30;99.90;;;;;;4866188;29;20064;-75
2024/01/20 02:23:41;;;;;;;12.60;3.42;;;1.30;99.90;;;;;;4865906;29;20053;-75
2024/01/20 02:26:07;;;;;;;9.15;3.83;;;1.30;99.90;;;;;;4866096;29;20493;-75
2024/01/20 02:28:33;;;;;;;12.35;3.05;;;1.30;99.90;;;;;;4865998;29;20051;-75
2024/01/20 02:30:58;;;;;;;14.77;4.03;;;1.40;99.90;;;;;;4865822;29;20049;-75
2024/01/20 02:33:24;;;;;;;13.25;3.45;;;1.40;99.90;;;;;;4865695;29;20105;-75
2024/01/20 02:35:50;;;;;;;10.00;3.20;;;1.40;99.90;;;;;;4865693;29;20053;-76
2024/01/20 02:38:15;;;;;;;12.43;3.22;;;1.40;99.90;;;;;;4865681;29;20553;-76
2024/01/20 02:40:41;;;;;;;10.63;3.00;;;1.40;99.90;;;;;;4865963;29;20080;-75
2024/01/20 02:43:07;;;;;;;9.15;3.78;;;1.40;99.90;;;;;;4865646;29;20457;-76
2024/01/20 02:45:32;;;;;;;9.32;3.53;;;1.40;99.90;;;;;;4865657;29;20485;-76
2024/01/20 02:47:58;;;;;;;11.32;3.30;;;1.30;99.90;;;;;;4865592;29;20057;-75
2024/01/20 02:50:24;;;;;;;17.25;4.35;;;1.40;99.90;;;;;;4865350;29;20048;-75
2024/01/20 02:52:51;;;;;;;8.23;3.67;;;1.40;99.90;;;;;;4865496;29;20128;-76
2024/01/20 02:55:17;;;;;;;14.93;3.83;;;1.40;99.90;;;;;;4865587;29;20064;-76
2024/01/20 02:57:45;;;;;;;11.98;3.63;;;1.40;99.90;;;;;;4865424;29;20052;-76
2024/01/20 03:00:12;;;;;;;12.45;3.42;;;1.40;99.90;;;;;;4865402;29;20049;-75
2024/01/20 03:02:37;;;;;;;11.13;3.10;;;1.40;99.90;;;;;;4865504;29;20481;-76
2024/01/20 03:05:03;;;;;;;16.48;4.47;;;1.40;99.90;;;;;;4865396;29;20053;-76
2024/01/20 03:07:29;;;;;;;8.98;3.10;;;1.40;99.90;;;;;;4865156;29;20132;-76
2024/01/20 03:09:55;;;;;;;9.38;2.88;;;1.40;99.90;;;;;;4864858;29;20056;-75
2024/01/20 03:12:20;;;;;;;13.35;4.10;;;1.50;99.90;;;;;;4865240;29;20053;-75
2024/01/20 03:14:46;;;;;;;13.82;3.03;;;1.50;99.90;;;;;;4865045;29;20045;-75
2024/01/20 03:17:12;;;;;;;15.02;3.53;;;1.50;99.90;;;;;;4864913;29;20076;-75
2024/01/20 03:19:37;;;;;;;15.75;3.80;;;1.50;99.90;;;;;;4864949;29;20041;-75
2024/01/20 03:22:03;;;;;;;11.27;3.70;;;1.50;99.90;;;;;;4865187;29;20108;-75
2024/01/20 03:24:29;;;;;;;14.13;3.83;;;1.50;99.90;;;;;;4864707;29;20520;-75
2024/01/20 03:26:55;;;;;;;9.60;2.97;;;1.50;99.90;;;;;;4865241;29;20392;-75
2024/01/20 03:29:22;;;;;;;11.15;3.53;;;1.50;99.90;;;;;;4864828;29;20493;-75
2024/01/20 03:31:47;;;;;;;14.80;5.18;;;1.50;99.90;;;;;;4864908;29;20059;-75
2024/01/20 03:34:13;;;;;;;12.18;3.40;;;1.50;99.90;;;;;;4864708;29;20396;-75
2024/01/20 03:36:38;;;;;;;12.13;4.03;;;1.50;99.90;;;;;;4864566;29;20049;-75
2024/01/20 03:39:04;;;;;;;15.73;3.92;;;1.50;99.90;;;;;;4864670;29;20056;-75
2024/01/20 03:41:30;;;;;;;14.23;4.20;;;1.50;99.90;;;;;;4864714;29;20045;-75
2024/01/20 03:43:58;;;;;;;12.88;4.40;;;1.50;99.90;;;;;;4864603;29;20085;-75
2024/01/20 03:46:24;;;;;;;12.52;3.60;;;1.50;99.90;;;;;;4864458;29;20056;-75
2024/01/20 03:48:49;;;;;;;20.10;4.32;;;1.50;99.90;;;;;;4864423;29;20045;-76
2024/01/20 03:51:15;;;;;;;11.07;3.95;;;1.50;99.90;;;;;;4864661;29;20053;-75
2024/01/20 03:53:41;;;;;;;11.90;4.22;;;1.50;99.90;;;;;;4880971;29;20049;-75
2024/01/20 03:56:06;;;;;;;11.85;3.90;;;1.60;99.90;;;;;;4864288;29;20064;-75
2024/01/20 03:58:32;;;;;;;8.98;4.18;;;1.60;99.90;;;;;;4864294;29;20498;-75
2024/01/20 04:00:58;;;;;;;13.02;4.03;;;1.50;99.90;;;;;;4864276;29;20053;-76
2024/01/20 04:03:24;;;;;;;12.60;3.95;;;1.50;99.90;;;;;;4880972;29;20045;-75
2024/01/20 04:05:49;;;;;;;11.93;4.25;;;1.50;99.90;;;;;;4863975;29;20059;-75
2024/01/20 04:08:17;;;;;;;9.23;3.72;;;1.50;99.90;;;;;;4863896;29;20068;-75
2024/01/20 04:10:43;;;;;;;12.20;4.13;;;1.50;99.90;;;;;;4880727;29;20492;-75
2024/01/20 04:13:09;;;;;;;15.15;4.20;;;1.40;99.90;;;;;;4864145;29;20053;-75
2024/01/20 04:15:34;;;;;;;11.98;4.68;;;1.40;99.90;;;;;;4863871;29;20049;-75
2024/01/20 04:18:00;;;;;;;16.05;5.50;;;1.40;99.90;;;;;;4863951;29;20049;-75
2024/01/20 04:20:25;;;;;;;13.10;5.25;;;1.30;99.90;;;;;;4880844;29;20052;-75
2024/01/20 04:22:51;;;;;;;11.40;5.68;;;1.30;99.90;;;;;;4863706;29;20561;-75
2024/01/20 04:25:17;;;;;;;15.27;5.30;;;1.30;99.90;;;;;;4864174;29;20047;-75
2024/01/20 04:27:42;;;;;;;13.38;5.05;;;1.20;99.90;;;;;;4862886;29;20130;-75
2024/01/20 04:30:09;;;;;;;15.05;5.75;;;1.20;99.90;;;;;;4880325;29;20053;-75
2024/01/20 04:32:47;;;;;;;15.02;7.78;;;1.10;99.90;;;;;;4863801;29;20049;-75
2024/01/20 04:35:13;;;;;;;13.93;6.68;;;1.10;99.90;;;;;;4863115;29;20053;-75
2024/01/20 04:37:39;;;;;;;17.77;6.90;;;1.10;99.90;;;;;;4863695;29;20493;-75
2024/01/20 04:40:08;;;;;;;11.63;6.50;;;1.00;99.90;;;;;;4863616;29;20124;-75
2024/01/20 04:42:34;;;;;;;15.38;7.28;;;1.00;99.90;;;;;;4863673;29;20109;-75
2024/01/20 04:45:03;;;;;;;13.60;7.55;;;1.00;99.90;;;;;;4863449;29;20405;-75
2024/01/20 04:47:29;;;;;;;16.65;7.88;;;1.00;99.90;;;;;;4863431;29;20049;-75
2024/01/20 04:49:54;;;;;;;15.02;8.70;;;1.00;99.90;;;;;;4863416;29;20045;-75
2024/01/20 04:52:20;;;;;;;23.63;9.80;;;0.90;99.90;;;;;;4863798;29;20045;-75
2024/01/20 04:54:45;;;;;;;17.92;10.10;;;0.90;99.90;;;;;;4863312;29;20128;-75
2024/01/20 04:57:11;;;;;;;21.17;11.73;;;0.90;99.90;;;;;;4863544;29;20091;-75
2024/01/20 04:59:37;;;;;;;19.70;11.50;;;0.80;99.90;;;;;;4863519;29;20045;-75
2024/01/20 05:02:02;;;;;;;19.55;11.82;;;0.90;99.90;;;;;;4863612;29;20080;-75
2024/01/20 05:04:28;;;;;;;20.52;11.77;;;0.80;99.90;;;;;;4863426;29;20052;-75
2024/01/20 05:06:53;;;;;;;20.67;11.95;;;0.90;99.90;;;;;;4863314;29;20081;-75
2024/01/20 05:09:20;;;;;;;19.52;11.30;;;0.90;99.90;;;;;;4879656;29;20053;-75
2024/01/20 05:11:46;;;;;;;19.17;11.02;;;0.90;99.90;;;;;;4863057;29;20132;-75
2024/01/20 05:14:14;;;;;;;22.75;13.52;;;0.90;99.90;;;;;;4863092;29;20128;-75
2024/01/20 05:16:40;;;;;;;27.27;14.13;;;0.80;99.90;;;;;;4879848;29;20528;-75
2024/01/20 05:19:06;;;;;;;24.23;13.85;;;0.90;99.90;;;;;;4863375;29;20044;-75
2024/01/20 05:21:31;;;;;;;23.75;13.82;;;0.80;99.90;;;;;;4863284;29;20049;-75
2024/01/20 05:23:59;;;;;;;20.65;14.00;;;0.80;99.90;;;;;;4863103;29;20041;-75
2024/01/20 05:26:25;;;;;;;23.88;13.80;;;0.80;99.90;;;;;;4863207;29;20080;-75
2024/01/20 05:28:51;;;;;;;34.08;15.95;;;0.80;99.90;;;;;;4893963;29;20445;-75
2024/01/20 05:31:17;;;;;;;24.60;16.13;;;0.80;99.90;;;;;;4863283;29;20132;-75
2024/01/20 05:33:42;;;;;;;24.55;14.98;;;0.80;99.90;;;;;;4863243;29;20053;-75
2024/01/20 05:36:11;;;;;;;29.83;16.98;;;0.70;99.90;;;;;;4862816;29;20049;-75
2024/01/20 05:38:37;;;;;;;26.42;16.40;;;0.80;99.90;;;;;;4863029;29;20409;-75
2024/01/20 05:41:02;;;;;;;28.00;15.70;;;0.80;99.90;;;;;;4879712;29;20057;-75
2024/01/20 05:43:28;;;;;;;29.25;16.50;;;0.70;99.90;;;;;;4863170;29;20101;-75
2024/01/20 05:45:54;;;;;;;30.75;16.52;;;0.70;99.90;;;;;;4862965;29;20374;-75
2024/01/20 05:48:21;;;;;;;31.55;16.80;;;0.70;99.90;;;;;;4866449;29;20044;-75
2024/01/20 05:50:47;;;;;;;26.33;16.17;;;0.70;99.90;;;;;;4866616;29;20117;-75
2024/01/20 05:53:13;;;;;;;30.35;16.98;;;0.70;99.90;;;;;;4866531;29;20084;-75
2024/01/20 05:55:38;;;;;;;25.98;15.82;;;0.60;99.90;;;;;;4866910;29;20051;-75
2024/01/20 05:58:04;;;;;;;31.23;17.95;;;0.60;99.90;;;;;;4866491;29;20056;-75
2024/01/20 06:00:32;;;;;;;29.75;16.20;;;0.60;99.90;;;;;;4866577;29;20188;-75
2024/01/20 06:02:58;;;;;;;27.05;16.13;;;0.60;99.90;;;;;;4866185;29;20040;-75
2024/01/20 06:05:24;;;;;;;25.95;15.80;;;0.60;99.90;;;;;;4897143;29;20132;-75
2024/01/20 06:07:57;;;;;;;39.83;19.65;;;0.60;99.90;;;;;;4866334;29;20052;-75
2024/01/20 06:10:23;;;;;;;29.60;16.15;;;0.50;99.90;;;;;;4866185;29;20131;-75
2024/01/20 06:12:49;;;;;;;27.67;15.98;;;0.50;99.90;;;;;;4866013;29;20386;-75
2024/01/20 06:15:15;;;;;;;31.17;16.63;;;0.50;99.90;;;;;;4866074;29;20501;-75
2024/01/20 06:17:40;;;;;;;26.80;16.75;;;0.60;99.90;;;;;;4866355;29;20053;-75
2024/01/20 06:20:07;;;;;;;26.10;16.75;;;0.50;99.90;;;;;;4882655;29;20045;-75
2024/01/20 06:22:32;;;;;;;33.03;18.08;;;0.50;99.90;;;;;;4865815;29;20059;-75
2024/01/20 06:24:58;;;;;;;27.77;17.00;;;0.50;99.90;;;;;;4882584;29;20045;-75
2024/01/20 06:27:24;;;;;;;30.63;17.67;;;0.50;99.90;;;;;;4865961;29;20069;-75
2024/01/20 06:29:50;;;;;;;34.05;17.05;;;0.50;99.90;;;;;;4882701;29;20048;-75
2024/01/20 06:32:16;;;;;;;32.80;20.02;;;0.40;99.90;;;;;;4866087;29;20053;-75
2024/01/20 06:34:41;;;;;;;30.80;18.88;;;0.50;99.90;;;;;;4865794;29;20390;-75
2024/01/20 06:37:07;;;;;;;31.63;18.60;;;0.40;99.90;;;;;;4897090;29;20057;-75
2024/01/20 06:39:32;;;;;;;36.38;19.17;;;0.40;99.90;;;;;;4865628;29;20063;-75
2024/01/20 06:41:58;;;;;;;33.92;19.65;;;0.40;99.90;;;;;;4865583;29;20053;-75
2024/01/20 06:44:24;;;;;;;35.60;18.40;;;0.40;99.90;;;;;;4865711;29;20185;-75
2024/01/20 06:46:49;;;;;;;29.27;19.15;;;0.40;99.90;;;;;;4865511;29;20204;-75
2024/01/20 06:49:15;;;;;;;31.98;19.33;;;0.40;99.90;;;;;;4865676;29;20101;-75
2024/01/20 06:51:44;;;;;;;31.92;18.75;;;0.40;99.90;;;;;;4865311;29;20056;-75
2024/01/20 06:54:10;;;;;;;32.20;18.83;;;0.30;99.90;;;;;;4865389;29;20488;-75
2024/01/20 06:56:36;;;;;;;38.65;19.88;;;0.30;99.90;;;;;;4865409;29;20132;-75
2024/01/20 06:59:02;;;;;;;34.35;18.15;;;0.30;99.90;;;;;;4864617;29;20144;-75
2024/01/20 07:01:28;;;;;;;29.80;19.25;;;0.30;99.90;;;;;;4865675;29;20052;-75
2024/01/20 07:03:57;;;;;;;33.50;18.25;;;0.30;99.90;;;;;;4865405;29;20067;-75
2024/01/20 07:06:26;;;;;;;28.67;17.98;;;0.40;99.90;;;;;;4865376;29;20045;-75
2024/01/20 07:08:54;;;;;;;45.03;19.67;;;0.30;99.90;;;;;;4864937;29;20061;-75
2024/01/20 07:11:20;;;;;;;30.60;17.83;;;0.40;99.90;;;;;;4865145;29;20061;-75
2024/01/20 07:13:46;;;;;;;34.28;18.10;;;0.40;99.90;;;;;;4865182;29;20048;-75
2024/01/20 07:16:13;;;;;;;29.20;16.70;;;0.40;99.90;;;;;;4865012;29;20052;-75
2024/01/20 07:18:39;;;;;;;27.00;15.82;;;0.40;99.90;;;;;;4864911;29;20045;-75
2024/01/20 07:21:05;;;;;;;21.42;12.82;;;0.40;99.90;;;;;;4864390;29;20092;-75
2024/01/20 07:23:31;;;;;;;23.85;14.35;;;0.40;99.90;;;;;;4864977;29;20088;-75
2024/01/20 07:25:58;;;;;;;32.75;18.90;;;0.50;99.90;;;;;;4864845;29;20088;-75
2024/01/20 07:28:24;;;;;;;33.78;19.75;;;0.50;99.90;;;;;;4864753;29;20041;-75
2024/01/20 07:30:50;;;;;;;34.05;19.60;;;0.50;99.90;;;;;;4864700;29;20049;-75
2024/01/20 07:33:16;;;;;;;38.42;23.05;;;0.40;99.90;;;;;;4864776;29;20181;-75
2024/01/20 07:35:41;;;;;;;41.05;22.73;;;0.40;99.90;;;;;;4864448;29;20045;-75
2024/01/20 07:38:07;;;;;;;39.55;21.10;;;0.40;99.90;;;;;;4864806;29;20523;-75
2024/01/20 07:40:33;;;;;;;41.67;22.70;;;0.40;99.90;;;;;;4864542;29;20127;-75
2024/01/20 07:42:58;;;;;;;40.65;23.33;;;0.40;99.90;;;;;;4895516;29;20049;-75
2024/01/20 07:45:27;;;;;;;42.83;22.60;;;0.40;99.90;;;;;;4864445;29;20049;-75
2024/01/20 07:47:52;;;;;;;40.08;21.40;;;0.40;99.90;;;;;;4864322;29;20081;-75
2024/01/20 07:50:18;;;;;;;47.03;23.45;;;0.50;99.90;;;;;;4864356;29;20170;-76
2024/01/20 07:52:43;;;;;;;40.40;21.48;;;0.40;99.90;;;;;;4881192;29;20041;-75
2024/01/20 07:55:12;;;;;;;43.70;21.42;;;0.50;99.90;;;;;;4864185;29;20386;-75
2024/01/20 07:57:39;;;;;;;46.13;24.35;;;0.50;99.90;;;;;;4864128;29;20052;-75
2024/01/20 08:00:05;;;;;;;43.72;21.58;;;0.50;99.90;;;;;;4864353;29;20109;-75
2024/01/20 08:02:31;;;;;;;46.15;23.17;;;0.50;99.90;;;;;;4864296;29;20036;-75
2024/01/20 08:04:56;;;;;;;52.40;26.83;;;0.50;99.90;;;;;;4863926;29;20557;-75
2024/01/20 08:07:22;;;;;;;49.00;23.42;;;0.60;99.90;;;;;;4864022;29;20087;-75
2024/01/20 08:09:48;;;;;;;48.70;25.25;;;0.50;99.90;;;;;;4863949;29;20088;-74
2024/01/20 08:12:15;;;;;;;45.53;24.17;;;0.60;99.90;;;;;;4864509;29;20084;-75
2024/01/20 08:14:41;;;;;;;53.50;24.70;;;0.60;99.90;;;;;;4864165;29;20057;-75
2024/01/20 08:17:07;;;;;;;50.67;23.80;;;0.60;99.90;;;;;;4863702;29;20128;-75
2024/01/20 08:19:32;;;;;;;50.75;25.80;;;0.60;99.90;;;;;;4863985;29;20042;-75
2024/01/20 08:21:58;;;;;;;50.95;28.65;;;0.70;99.90;;;;;;4863694;29;20418;-77
2024/01/20 08:24:24;;;;;;;52.15;27.25;;;0.60;99.90;;;;;;4861213;29;20048;-75
2024/01/20 08:26:49;;;;;;;48.20;27.33;;;0.70;99.90;;;;;;4853387;29;20060;-75
2024/01/20 08:29:17;;;;;;;51.70;25.05;;;0.70;99.90;;;;;;4845034;29;20459;-75
2024/01/20 08:31:45;;;;;;;52.30;25.83;;;0.70;99.90;;;;;;4858535;29;20051;-75
2024/01/20 08:34:11;;;;;;;49.80;25.27;;;0.70;99.90;;;;;;4871161;29;20076;-75
2024/01/20 08:36:37;;;;;;;47.13;24.98;;;0.80;99.90;;;;;;4872871;29;20477;-75
2024/01/20 08:39:02;;;;;;;48.28;26.67;;;0.80;99.90;;;;;;4872205;29;20398;-76
2024/01/20 08:41:28;;;;;;;54.53;27.00;;;0.90;99.90;;;;;;4871415;29;20493;-76
2024/01/20 08:43:54;;;;;;;53.25;27.75;;;0.90;99.90;;;;;;4873176;29;20036;-76
2024/01/20 08:46:19;;;;;;;57.30;26.52;;;0.90;99.90;;;;;;4870042;29;20460;-76
2024/01/20 08:48:45;;;;;;;57.53;26.20;;;1.00;99.90;;;;;;4871975;29;20049;-76
2024/01/20 08:51:10;;;;;;;49.13;26.70;;;0.90;99.90;;;;;;4871491;29;20055;-76
2024/01/20 08:53:37;;;;;;;51.05;28.13;;;1.00;99.90;;;;;;4889371;29;20056;-76
2024/01/20 08:56:03;;;;;;;55.92;27.52;;;1.00;99.90;;;;;;4862402;29;20405;-76
2024/01/20 08:58:29;;;;;;;53.50;27.15;;;1.00;99.90;;;;;;4862945;29;20048;-76
2024/01/20 09:00:55;;;;;;;58.65;32.40;;;1.10;99.90;;;;;;4895464;29;20080;-74
2024/01/20 09:03:21;;;;;;;62.78;33.63;;;1.00;99.90;;;;;;4881622;29;20092;-74
2024/01/20 09:05:46;;;;;;;66.35;36.67;;;1.10;99.90;;;;;;4881525;29;20068;-74
2024/01/20 09:08:13;;;;;;;58.08;29.67;;;1.10;99.90;;;;;;4881587;29;20087;-76
2024/01/20 09:10:41;;;;;;;57.45;29.67;;;1.10;99.90;;;;;;4881795;29;20087;-75
2024/01/20 09:13:07;;;;;;;68.38;34.22;;;1.10;99.90;;;;;;4881308;29;20084;-74
2024/01/20 09:15:33;;;;;;;57.28;28.77;;;1.10;99.90;;;;;;4881507;29;20056;-74
2024/01/20 09:17:58;;;;;;;59.28;30.52;;;1.10;99.90;;;;;;4881523;29;20036;-75
2024/01/20 09:20:24;;;;;;;60.25;30.58;;;1.20;99.90;;;;;;4881548;29;20489;-74
2024/01/20 09:22:50;;;;;;;57.88;29.67;;;1.20;99.90;;;;;;4887516;29;20048;-75
2024/01/20 09:25:16;;;;;;;57.83;28.77;;;1.20;99.90;;;;;;4887584;29;20512;-75
2024/01/20 09:27:42;;;;;;;54.83;28.25;;;1.20;99.90;;;;;;4887701;29;20180;-75
2024/01/20 09:30:09;;;;;;;55.28;28.25;;;1.20;99.90;;;;;;4887512;29;20059;-75
2024/01/20 09:32:38;;;;;;;56.92;30.50;;;1.20;99.90;;;;;;4887664;29;20055;-75
2024/01/20 09:35:04;;;;;;;66.13;29.73;;;1.30;99.90;;;;;;4887723;29;20061;-75
2024/01/20 09:37:29;;;;;;;57.72;28.98;;;1.30;99.90;;;;;;4887460;29;20056;-75
2024/01/20 09:40:00;;;;;;;54.45;26.58;;;1.30;99.90;;;;;;4887400;29;20512;-75
2024/01/20 09:42:26;;;;;;;55.33;26.67;;;1.40;99.90;;;;;;4887380;29;20172;-76
2024/01/20 09:44:53;;;;;;;50.95;27.58;;;1.40;99.90;;;;;;4887588;29;20056;-75
2024/01/20 09:47:18;;;;;;;64.40;28.83;;;1.40;99.90;;;;;;4883168;29;20048;-76
2024/01/20 09:49:44;;;;;;;58.50;31.20;;;1.50;99.90;;;;;;4878079;29;20055;-75
2024/01/20 09:52:15;;;;;;;62.08;32.33;;;1.50;99.90;;;;;;4876597;29;20085;-76
2024/01/20 09:54:54;;;;;;;59.72;30.15;;;1.60;99.90;;;;;;4875603;29;20037;-76
2024/01/20 09:57:21;;;;;;;55.00;29.85;;;1.60;99.90;;;;;;4875390;29;20083;-75
2024/01/20 09:59:48;;;;;;;55.70;27.27;;;1.60;99.90;;;;;;4876940;29;20046;-76
2024/01/20 10:02:17;;;;;;;53.05;27.05;;;1.60;99.90;;;;;;4878510;29;20526;-76
2024/01/20 10:04:46;;;;;;;62.28;30.30;;;1.60;99.90;;;;;;4877707;29;20089;-76
2024/01/20 10:07:26;;;;;;;54.70;26.70;;;1.60;99.90;;;;;;4878793;29;20036;-76
2024/01/20 10:09:53;;;;;;;55.17;28.05;;;1.70;99.90;;;;;;4878149;29;20057;-76
2024/01/20 10:12:19;;;;;;;56.83;27.90;;;1.60;99.90;;;;;;4875886;29;20132;-75
2024/01/20 10:14:45;;;;;;;55.35;26.73;;;1.70;99.90;;;;;;4873863;29;20139;-76
2024/01/20 10:17:10;;;;;;;57.28;27.00;;;1.70;99.90;;;;;;4899472;29;20394;-76
2024/01/20 10:19:37;;;;;;;51.72;26.42;;;1.70;99.90;;;;;;4868636;29;20085;-76
2024/01/20 10:22:10;;;;;;;55.63;26.90;;;1.70;99.90;;;;;;4868408;29;20049;-76
2024/01/20 10:24:56;;;;;;;63.67;26.15;;;1.70;99.90;;;;;;4899779;29;20404;-76
2024/01/20 10:27:25;;;;;;;56.17;26.95;;;1.70;99.90;;;;;;4868012;29;20092;-76
2024/01/20 10:29:56;;;;;;;57.97;25.55;;;1.70;99.90;;;;;;4885068;29;20454;-76
2024/01/20 10:32:25;;;;;;;54.50;24.30;;;1.70;99.90;;;;;;4867202;29;20085;-75
2024/01/20 10:34:50;;;;;;;60.30;27.70;;;1.80;99.90;;;;;;4871865;29;20120;-75
2024/01/20 10:37:18;;;;;;;57.17;27.52;;;1.80;99.90;;;;;;4884340;29;20135;-76
2024/01/20 10:39:45;;;;;;;60.28;28.25;;;1.80;99.90;;;;;;4880595;29;20088;-75
2024/01/20 10:42:15;;;;;;;58.47;27.58;;;1.80;99.90;;;;;;4880903;29;20426;-76
2024/01/20 10:44:44;;;;;;;62.22;28.88;;;1.80;99.90;;;;;;4874998;29;20092;-76
2024/01/20 10:47:18;;;;;;;55.13;25.85;;;1.80;99.90;;;;;;4884065;29;20131;-76
2024/01/20 10:49:45;;;;;;;60.72;28.48;;;1.90;99.90;;;;;;4884084;29;20084;-76
2024/01/20 10:52:13;;;;;;;54.95;27.02;;;1.90;99.90;;;;;;4883805;29;20291;-76
2024/01/20 10:54:44;;;;;;;55.05;26.38;;;1.90;99.90;;;;;;4883699;29;20048;-76
2024/01/20 10:57:13;;;;;;;53.30;25.23;;;1.90;99.90;;;;;;4883606;29;20107;-76
2024/01/20 10:59:41;;;;;;;59.53;25.58;;;1.90;99.90;;;;;;4883835;29;21141;-76
2024/01/20 11:02:11;;;;;;;48.60;24.38;;;1.90;99.90;;;;;;4900624;29;20127;-76
2024/01/20 11:04:40;;;;;;;48.97;22.50;;;1.90;99.90;;;;;;4880435;29;20059;-76
2024/01/20 11:07:08;;;;;;;44.67;23.58;;;2.00;99.90;;;;;;4883696;29;20512;-75
2024/01/20 11:09:39;;;;;;;51.20;23.95;;;2.00;99.90;;;;;;4883206;29;20520;-76
2024/01/20 11:12:08;;;;;;;45.70;24.02;;;2.00;99.90;;;;;;4883494;29;20044;-76
2024/01/20 11:14:34;;;;;;;46.45;23.45;;;2.00;99.90;;;;;;4876022;29;20087;-76
2024/01/20 11:17:17;;;;;;;52.95;25.77;;;1.90;99.90;;;;;;4897487;29;20041;-76
2024/01/20 11:19:43;;;;;;;52.53;23.48;;;2.00;99.90;;;;;;4874063;29;20044;-76
2024/01/20 11:22:34;;;;;;;44.10;20.98;;;2.00;99.90;;;;;;4872566;29;20092;-76
2024/01/20 11:25:05;;;;;;;41.55;18.65;;;1.90;99.90;;;;;;4873189;29;20410;-77
2024/01/20 11:27:31;;;;;;;50.67;22.98;;;2.00;99.90;;;;;;4878953;29;20048;-76
2024/01/20 11:30:05;;;;;;;46.75;22.95;;;1.90;99.90;;;;;;4883086;29;20050;-77
2024/01/20 11:32:32;;;;;;;48.33;23.45;;;1.90;99.90;;;;;;4883293;29;20104;-76
2024/01/20 11:34:59;;;;;;;51.22;24.70;;;1.90;99.90;;;;;;4883051;29;20135;-77
2024/01/20 11:37:25;;;;;;;42.08;22.73;;;1.90;99.90;;;;;;4883195;29;20091;-77
2024/01/20 11:40:01;;;;;;;45.45;21.80;;;1.90;99.90;;;;;;4883127;29;20084;-76
2024/01/20 11:42:26;;;;;;;44.80;23.17;;;1.90;99.90;;;;;;4883059;29;20052;-76
2024/01/20 11:44:52;;;;;;;52.03;24.30;;;2.00;99.90;;;;;;4882415;29;20053;-76
2024/01/20 11:47:18;;;;;;;46.03;22.02;;;2.00;99.90;;;;;;4882720;29;20060;-76
2024/01/20 11:49:43;;;;;;;46.15;22.45;;;2.00;99.90;;;;;;4882747;29;20053;-76
2024/01/20 11:52:12;;;;;;;49.10;22.02;;;2.00;99.90;;;;;;4882833;29;20493;-76
2024/01/20 11:54:37;;;;;;;46.72;23.05;;;2.00;99.90;;;;;;4882647;29;20040;-76
2024/01/20 11:57:04;;;;;;;44.45;20.80;;;2.00;99.90;;;;;;4882522;29;20045;-77
2024/01/20 11:59:29;;;;;;;49.83;21.85;;;2.00;99.90;;;;;;4882591;29;20045;-76
2024/01/20 12:01:56;;;;;;;50.92;22.63;;;2.00;99.90;;;;;;4882624;29;20056;-76
2024/01/20 12:04:21;;;;;;;50.90;22.98;;;2.00;99.90;;;;;;4882506;29;20080;-76
2024/01/20 12:06:48;;;;;;;48.33;24.10;;;2.00;99.90;;;;;;4882458;29;20087;-76
2024/01/20 12:09:13;;;;;;;49.05;24.60;;;2.00;99.90;;;;;;4882125;29;20069;-76
2024/01/20 12:11:40;;;;;;;43.60;22.55;;;2.00;99.90;;;;;;4882393;29;20068;-76
2024/01/20 12:14:08;;;;;;;47.15;24.17;;;2.00;99.90;;;;;;4882573;29;20059;-76
2024/01/20 12:16:33;;;;;;;50.33;23.42;;;2.00;99.90;;;;;;4882106;29;20080;-76
2024/01/20 12:19:00;;;;;;;51.63;25.33;;;2.10;99.90;;;;;;4871870;29;20069;-75
2024/01/20 12:21:27;;;;;;;55.15;23.67;;;2.10;99.90;;;;;;4863881;29;20053;-76
2024/01/20 12:23:53;;;;;;;54.95;25.58;;;2.10;99.90;;;;;;4863866;29;20511;-77
2024/01/20 12:26:19;;;;;;;55.55;26.08;;;2.10;99.90;;;;;;4863626;29;20057;-79
2024/01/20 12:28:46;;;;;;;45.22;22.65;;;2.10;99.90;;;;;;4863863;29;20048;-80
2024/01/20 12:31:12;;;;;;;51.70;25.30;;;2.10;99.90;;;;;;4863636;29;20105;-79
2024/01/20 12:33:38;;;;;;;55.30;25.38;;;2.10;99.90;;;;;;4863837;29;20131;-77
2024/01/20 12:36:04;;;;;;;57.95;26.05;;;2.10;99.90;;;;;;4863556;29;20127;-76
2024/01/20 12:38:29;;;;;;;49.25;23.50;;;2.20;99.90;;;;;;4863632;29;20052;-76